sensor_id;sensor_type;location;lat;lon;timestamp;P1;durP1;ratioP1;P2;durP2;ratioP2
13455;SDS011;6800;50.940;6.940;2022-12-31T00:03:18;10.10;;;7.47;;
13455;SDS011;6800;50.940;6.940;2022-12-31T00:07:18;4.77;;;3.13;;
13455;SDS011;6800;50.940;6.940;2022-12-31T00:11:19;1.70;;;1.60;;
13455;SDS011;6800;50.940;6.940;2022-12-31T00:15:20;3.43;;;3.13;;
13455;SDS011;6800;50.940;6.940;2022-12-31T00:19:20;2.27;;;2.07;;
13455;SDS011;6800;50.940;6.940;2022-12-31T00:23:24;1.53;;;1.43;;
13455;SDS011;6800;50.940;6.940;2022-12-31T00:27:24;1.60;;;1.40;;
13455;SDS011;6800;50.940;6.940;2022-12-31T00:31:35;1.60;;;1.50;;
13455;SDS011;6800;50.940;6.940;2022-12-31T00:35:37;1.80;;;1.70;;
13455;SDS011;6800;50.940;6.940;2022-12-31T00:39:37;3.00;;;2.70;;
13455;SDS011;6800;50.940;6.940;2022-12-31T00:43:37;3.53;;;2.23;;
13455;SDS011;6800;50.940;6.940;2022-12-31T00:47:37;2.33;;;2.10;;
13455;SDS011;6800;50.940;6.940;2022-12-31T00:51:38;2.50;;;1.80;;
13455;SDS011;6800;50.940;6.940;2022-12-31T00:55:38;2.37;;;2.07;;
13455;SDS011;6800;50.940;6.940;2022-12-31T00:59:38;2.30;;;1.87;;
13455;SDS011;6800;50.940;6.940;2022-12-31T01:03:38;1.90;;;1.57;;
13455;SDS011;6800;50.940;6.940;2022-12-31T01:07:39;1.63;;;1.50;;
13455;SDS011;6800;50.940;6.940;2022-12-31T01:11:39;1.50;;;1.40;;
13455;SDS011;6800;50.940;6.940;2022-12-31T01:15:40;1.80;;;1.70;;
13455;SDS011;6800;50.940;6.940;2022-12-31T01:19:40;1.30;;;1.20;;
13455;SDS011;6800;50.940;6.940;2022-12-31T01:23:42;5.80;;;5.20;;
13455;SDS011;6800;50.940;6.940;2022-12-31T01:27:42;3.03;;;2.33;;
13455;SDS011;6800;50.940;6.940;2022-12-31T01:31:42;1.43;;;1.33;;
13455;SDS011;6800;50.940;6.940;2022-12-31T01:35:43;1.43;;;1.33;;
13455;SDS011;6800;50.940;6.940;2022-12-31T01:39:43;1.30;;;1.20;;
13455;SDS011;6800;50.940;6.940;2022-12-31T01:47:49;1.20;;;1.10;;
13455;SDS011;6800;50.940;6.940;2022-12-31T01:52:05;1.20;;;1.10;;
13455;SDS011;6800;50.940;6.940;2022-12-31T01:56:15;1.23;;;0.80;;
13455;SDS011;6800;50.940;6.940;2022-12-31T02:00:20;1.00;;;1.00;;
13455;SDS011;6800;50.940;6.940;2022-12-31T02:04:21;0.80;;;0.80;;
13455;SDS011;6800;50.940;6.940;2022-12-31T02:08:26;0.90;;;0.90;;
13455;SDS011;6800;50.940;6.940;2022-12-31T02:12:27;0.87;;;0.87;;
13455;SDS011;6800;50.940;6.940;2022-12-31T02:16:37;0.98;;;0.90;;
13455;SDS011;6800;50.940;6.940;2022-12-31T02:21:13;1.03;;;0.90;;
13455;SDS011;6800;50.940;6.940;2022-12-31T02:30:20;0.80;;;0.70;;
13455;SDS011;6800;50.940;6.940;2022-12-31T02:38:39;0.80;;;0.80;;
13455;SDS011;6800;50.940;6.940;2022-12-31T02:42:48;1.00;;;1.00;;
13455;SDS011;6800;50.940;6.940;2022-12-31T02:59:21;1.10;;;1.10;;
13455;SDS011;6800;50.940;6.940;2022-12-31T03:03:46;1.30;;;1.20;;
13455;SDS011;6800;50.940;6.940;2022-12-31T03:07:46;1.70;;;0.93;;
13455;SDS011;6800;50.940;6.940;2022-12-31T03:11:47;1.33;;;0.90;;
13455;SDS011;6800;50.940;6.940;2022-12-31T03:16:06;1.58;;;0.93;;
13455;SDS011;6800;50.940;6.940;2022-12-31T03:20:06;1.45;;;0.95;;
13455;SDS011;6800;50.940;6.940;2022-12-31T03:24:25;0.70;;;0.70;;
13455;SDS011;6800;50.940;6.940;2022-12-31T03:28:44;0.73;;;0.73;;
13455;SDS011;6800;50.940;6.940;2022-12-31T03:32:47;0.95;;;0.95;;
13455;SDS011;6800;50.940;6.940;2022-12-31T03:36:48;0.93;;;0.90;;
13455;SDS011;6800;50.940;6.940;2022-12-31T03:40:50;1.10;;;1.00;;
13455;SDS011;6800;50.940;6.940;2022-12-31T03:44:52;0.80;;;0.80;;
13455;SDS011;6800;50.940;6.940;2022-12-31T03:48:53;0.80;;;0.80;;
13455;SDS011;6800;50.940;6.940;2022-12-31T03:52:53;0.75;;;0.75;;
13455;SDS011;6800;50.940;6.940;2022-12-31T03:56:53;0.87;;;0.70;;
13455;SDS011;6800;50.940;6.940;2022-12-31T04:00:53;0.83;;;0.83;;
13455;SDS011;6800;50.940;6.940;2022-12-31T04:04:54;1.03;;;0.87;;
13455;SDS011;6800;50.940;6.940;2022-12-31T04:08:54;0.88;;;0.77;;
13455;SDS011;6800;50.940;6.940;2022-12-31T04:12:54;1.30;;;1.20;;
13455;SDS011;6800;50.940;6.940;2022-12-31T04:16:54;0.90;;;0.90;;
13455;SDS011;6800;50.940;6.940;2022-12-31T04:20:59;1.30;;;1.20;;
13455;SDS011;6800;50.940;6.940;2022-12-31T04:25:01;1.25;;;1.17;;
13455;SDS011;6800;50.940;6.940;2022-12-31T04:29:01;0.90;;;0.90;;
13455;SDS011;6800;50.940;6.940;2022-12-31T04:33:01;1.52;;;1.42;;
13455;SDS011;6800;50.940;6.940;2022-12-31T04:37:02;0.95;;;0.95;;
13455;SDS011;6800;50.940;6.940;2022-12-31T04:41:02;1.33;;;0.80;;
13455;SDS011;6800;50.940;6.940;2022-12-31T04:45:18;2.20;;;1.40;;
13455;SDS011;6800;50.940;6.940;2022-12-31T04:49:18;1.83;;;1.07;;
13455;SDS011;6800;50.940;6.940;2022-12-31T04:53:19;0.98;;;0.98;;
13455;SDS011;6800;50.940;6.940;2022-12-31T04:57:19;1.48;;;1.33;;
13455;SDS011;6800;50.940;6.940;2022-12-31T05:01:19;1.75;;;1.10;;
13455;SDS011;6800;50.940;6.940;2022-12-31T05:05:20;1.13;;;1.10;;
13455;SDS011;6800;50.940;6.940;2022-12-31T05:09:20;0.90;;;0.90;;
13455;SDS011;6800;50.940;6.940;2022-12-31T05:13:23;1.58;;;0.95;;
13455;SDS011;6800;50.940;6.940;2022-12-31T05:17:23;1.13;;;1.05;;
13455;SDS011;6800;50.940;6.940;2022-12-31T05:21:24;1.52;;;1.00;;
13455;SDS011;6800;50.940;6.940;2022-12-31T05:25:24;1.25;;;1.00;;
13455;SDS011;6800;50.940;6.940;2022-12-31T05:29:25;1.73;;;1.23;;
13455;SDS011;6800;50.940;6.940;2022-12-31T05:33:25;1.42;;;1.27;;
13455;SDS011;6800;50.940;6.940;2022-12-31T05:37:26;1.75;;;1.30;;
13455;SDS011;6800;50.940;6.940;2022-12-31T05:41:28;1.10;;;1.00;;
13455;SDS011;6800;50.940;6.940;2022-12-31T05:45:28;1.40;;;1.30;;
13455;SDS011;6800;50.940;6.940;2022-12-31T05:49:28;1.13;;;1.10;;
13455;SDS011;6800;50.940;6.940;2022-12-31T05:53:28;1.20;;;1.20;;
13455;SDS011;6800;50.940;6.940;2022-12-31T05:57:29;2.05;;;1.40;;
13455;SDS011;6800;50.940;6.940;2022-12-31T06:01:29;1.30;;;1.20;;
13455;SDS011;6800;50.940;6.940;2022-12-31T06:05:29;1.60;;;1.30;;
13455;SDS011;6800;50.940;6.940;2022-12-31T06:13:54;3.22;;;1.70;;
13455;SDS011;6800;50.940;6.940;2022-12-31T06:17:54;1.85;;;1.20;;
13455;SDS011;6800;50.940;6.940;2022-12-31T06:21:54;1.40;;;1.20;;
13455;SDS011;6800;50.940;6.940;2022-12-31T06:25:55;2.35;;;1.52;;
13455;SDS011;6800;50.940;6.940;2022-12-31T06:29:55;1.75;;;1.40;;
13455;SDS011;6800;50.940;6.940;2022-12-31T06:33:55;2.17;;;1.40;;
13455;SDS011;6800;50.940;6.940;2022-12-31T06:37:55;1.77;;;1.38;;
13455;SDS011;6800;50.940;6.940;2022-12-31T06:41:56;2.40;;;1.52;;
13455;SDS011;6800;50.940;6.940;2022-12-31T06:46:00;1.95;;;1.52;;
13455;SDS011;6800;50.940;6.940;2022-12-31T06:50:04;2.63;;;1.60;;
13455;SDS011;6800;50.940;6.940;2022-12-31T06:54:08;2.13;;;1.67;;
13455;SDS011;6800;50.940;6.940;2022-12-31T06:58:11;2.10;;;1.30;;
13455;SDS011;6800;50.940;6.940;2022-12-31T07:02:25;2.08;;;1.45;;
13455;SDS011;6800;50.940;6.940;2022-12-31T07:06:31;3.22;;;1.60;;
13455;SDS011;6800;50.940;6.940;2022-12-31T07:10:38;2.00;;;1.40;;
13455;SDS011;6800;50.940;6.940;2022-12-31T07:14:58;2.45;;;1.58;;
13455;SDS011;6800;50.940;6.940;2022-12-31T07:23:20;1.88;;;1.38;;
13455;SDS011;6800;50.940;6.940;2022-12-31T07:27:35;2.03;;;1.42;;
13455;SDS011;6800;50.940;6.940;2022-12-31T07:31:46;1.50;;;1.40;;
13455;SDS011;6800;50.940;6.940;2022-12-31T07:48:56;1.80;;;1.70;;
13455;SDS011;6800;50.940;6.940;2022-12-31T07:52:57;2.17;;;2.08;;
13455;SDS011;6800;50.940;6.940;2022-12-31T07:56:57;2.10;;;1.90;;
13455;SDS011;6800;50.940;6.940;2022-12-31T08:00:58;2.47;;;1.55;;
13455;SDS011;6800;50.940;6.940;2022-12-31T08:13:21;1.80;;;1.70;;
13455;SDS011;6800;50.940;6.940;2022-12-31T08:17:22;1.75;;;1.65;;
13455;SDS011;6800;50.940;6.940;2022-12-31T08:25:37;1.73;;;1.60;;
13455;SDS011;6800;50.940;6.940;2022-12-31T08:34:06;1.70;;;1.60;;
13455;SDS011;6800;50.940;6.940;2022-12-31T08:38:16;1.95;;;1.83;;
13455;SDS011;6800;50.940;6.940;2022-12-31T08:42:34;1.75;;;1.60;;
13455;SDS011;6800;50.940;6.940;2022-12-31T08:46:49;2.85;;;2.05;;
13455;SDS011;6800;50.940;6.940;2022-12-31T08:51:05;2.05;;;1.77;;
13455;SDS011;6800;50.940;6.940;2022-12-31T08:55:12;2.35;;;2.08;;
13455;SDS011;6800;50.940;6.940;2022-12-31T09:03:54;2.85;;;1.90;;
13455;SDS011;6800;50.940;6.940;2022-12-31T09:12:30;4.18;;;2.10;;
13455;SDS011;6800;50.940;6.940;2022-12-31T09:16:56;2.72;;;2.20;;
13455;SDS011;6800;50.940;6.940;2022-12-31T09:21:02;2.55;;;2.28;;
13455;SDS011;6800;50.940;6.940;2022-12-31T09:25:02;2.30;;;2.10;;
13455;SDS011;6800;50.940;6.940;2022-12-31T09:29:09;2.10;;;1.90;;
13455;SDS011;6800;50.940;6.940;2022-12-31T09:33:46;2.70;;;2.00;;
13455;SDS011;6800;50.940;6.940;2022-12-31T09:37:52;2.90;;;1.75;;
13455;SDS011;6800;50.940;6.940;2022-12-31T09:42:03;2.10;;;1.88;;
13455;SDS011;6800;50.940;6.940;2022-12-31T09:59:40;3.25;;;2.42;;
13455;SDS011;6800;50.940;6.940;2022-12-31T10:04:01;3.55;;;2.00;;
13455;SDS011;6800;50.940;6.940;2022-12-31T10:08:12;3.35;;;2.50;;
13455;SDS011;6800;50.940;6.940;2022-12-31T10:16:50;2.28;;;2.08;;
13455;SDS011;6800;50.940;6.940;2022-12-31T10:21:04;2.78;;;2.20;;
13455;SDS011;6800;50.940;6.940;2022-12-31T10:52:04;2.75;;;2.28;;
13455;SDS011;6800;50.940;6.940;2022-12-31T11:00:22;3.83;;;2.10;;
13455;SDS011;6800;50.940;6.940;2022-12-31T11:13:19;2.42;;;2.00;;
13455;SDS011;6800;50.940;6.940;2022-12-31T11:43:09;2.90;;;2.20;;
13455;SDS011;6800;50.940;6.940;2022-12-31T11:47:24;2.90;;;2.30;;
13455;SDS011;6800;50.940;6.940;2022-12-31T11:51:51;4.28;;;2.90;;
13455;SDS011;6800;50.940;6.940;2022-12-31T11:56:22;3.13;;;2.80;;
13455;SDS011;6800;50.940;6.940;2022-12-31T12:00:25;3.22;;;2.58;;
13455;SDS011;6800;50.940;6.940;2022-12-31T12:04:27;4.75;;;3.00;;
13455;SDS011;6800;50.940;6.940;2022-12-31T12:08:27;6.35;;;3.05;;
13455;SDS011;6800;50.940;6.940;2022-12-31T12:12:37;3.30;;;3.00;;
13455;SDS011;6800;50.940;6.940;2022-12-31T12:16:41;3.88;;;2.90;;
13455;SDS011;6800;50.940;6.940;2022-12-31T12:20:41;2.78;;;2.58;;
13455;SDS011;6800;50.940;6.940;2022-12-31T12:24:52;2.72;;;2.40;;
13455;SDS011;6800;50.940;6.940;2022-12-31T12:28:57;4.65;;;3.15;;
13455;SDS011;6800;50.940;6.940;2022-12-31T12:33:00;4.40;;;2.90;;
13455;SDS011;6800;50.940;6.940;2022-12-31T12:37:04;3.00;;;2.75;;
13455;SDS011;6800;50.940;6.940;2022-12-31T12:41:22;3.65;;;2.72;;
13455;SDS011;6800;50.940;6.940;2022-12-31T12:45:25;2.85;;;2.50;;
13455;SDS011;6800;50.940;6.940;2022-12-31T12:49:28;4.85;;;3.83;;
13455;SDS011;6800;50.940;6.940;2022-12-31T12:53:37;3.75;;;2.80;;
13455;SDS011;6800;50.940;6.940;2022-12-31T13:02:00;6.68;;;2.63;;
13455;SDS011;6800;50.940;6.940;2022-12-31T13:06:16;4.05;;;2.40;;
13455;SDS011;6800;50.940;6.940;2022-12-31T13:10:32;3.70;;;3.25;;
13455;SDS011;6800;50.940;6.940;2022-12-31T13:19:00;3.20;;;2.90;;
13455;SDS011;6800;50.940;6.940;2022-12-31T13:23:34;4.35;;;2.78;;
13455;SDS011;6800;50.940;6.940;2022-12-31T13:27:43;2.72;;;2.53;;
13455;SDS011;6800;50.940;6.940;2022-12-31T13:31:46;2.65;;;2.40;;
13455;SDS011;6800;50.940;6.940;2022-12-31T13:35:50;3.25;;;2.22;;
13455;SDS011;6800;50.940;6.940;2022-12-31T13:40:00;2.30;;;2.10;;
13455;SDS011;6800;50.940;6.940;2022-12-31T13:48:19;4.43;;;2.00;;
13455;SDS011;6800;50.940;6.940;2022-12-31T13:52:29;2.88;;;1.95;;
13455;SDS011;6800;50.940;6.940;2022-12-31T13:56:36;3.17;;;2.20;;
13455;SDS011;6800;50.940;6.940;2022-12-31T14:00:45;2.40;;;2.20;;
13455;SDS011;6800;50.940;6.940;2022-12-31T14:04:50;3.33;;;2.15;;
13455;SDS011;6800;50.940;6.940;2022-12-31T14:08:55;4.70;;;3.05;;
13455;SDS011;6800;50.940;6.940;2022-12-31T14:12:58;4.30;;;2.70;;
13455;SDS011;6800;50.940;6.940;2022-12-31T14:17:35;2.35;;;2.05;;
13455;SDS011;6800;50.940;6.940;2022-12-31T14:22:03;3.10;;;2.22;;
13455;SDS011;6800;50.940;6.940;2022-12-31T14:26:10;4.25;;;2.70;;
13455;SDS011;6800;50.940;6.940;2022-12-31T14:30:16;3.60;;;2.25;;
13455;SDS011;6800;50.940;6.940;2022-12-31T14:34:39;3.08;;;2.25;;
13455;SDS011;6800;50.940;6.940;2022-12-31T14:47:54;5.07;;;3.00;;
13455;SDS011;6800;50.940;6.940;2022-12-31T14:52:28;6.05;;;2.50;;
13455;SDS011;6800;50.940;6.940;2022-12-31T15:00:50;4.22;;;2.30;;
13455;SDS011;6800;50.940;6.940;2022-12-31T15:05:01;4.03;;;2.28;;
13455;SDS011;6800;50.940;6.940;2022-12-31T15:09:17;2.83;;;2.28;;
13455;SDS011;6800;50.940;6.940;2022-12-31T15:13:34;4.53;;;2.53;;
13455;SDS011;6800;50.940;6.940;2022-12-31T15:17:46;3.65;;;2.30;;
13455;SDS011;6800;50.940;6.940;2022-12-31T15:22:03;3.97;;;2.30;;
13455;SDS011;6800;50.940;6.940;2022-12-31T15:26:21;2.65;;;2.42;;
13455;SDS011;6800;50.940;6.940;2022-12-31T15:30:34;2.88;;;1.98;;
13455;SDS011;6800;50.940;6.940;2022-12-31T15:34:37;2.30;;;2.10;;
13455;SDS011;6800;50.940;6.940;2022-12-31T15:38:38;5.80;;;2.57;;
13455;SDS011;6800;50.940;6.940;2022-12-31T15:51:28;4.18;;;2.80;;
13455;SDS011;6800;50.940;6.940;2022-12-31T15:59:36;4.13;;;2.80;;
13455;SDS011;6800;50.940;6.940;2022-12-31T16:03:41;4.78;;;3.20;;
13455;SDS011;6800;50.940;6.940;2022-12-31T16:07:44;3.72;;;3.22;;
13455;SDS011;6800;50.940;6.940;2022-12-31T16:11:44;4.32;;;2.53;;
13455;SDS011;6800;50.940;6.940;2022-12-31T16:15:47;4.28;;;2.55;;
13455;SDS011;6800;50.940;6.940;2022-12-31T16:19:50;5.03;;;2.83;;
13455;SDS011;6800;50.940;6.940;2022-12-31T16:23:51;3.90;;;2.70;;
13455;SDS011;6800;50.940;6.940;2022-12-31T16:27:54;3.47;;;2.53;;
13455;SDS011;6800;50.940;6.940;2022-12-31T16:31:54;3.33;;;3.00;;
13455;SDS011;6800;50.940;6.940;2022-12-31T16:35:59;3.78;;;2.95;;
13455;SDS011;6800;50.940;6.940;2022-12-31T16:44:25;4.75;;;3.00;;
13455;SDS011;6800;50.940;6.940;2022-12-31T16:48:27;3.63;;;3.25;;
13455;SDS011;6800;50.940;6.940;2022-12-31T16:52:31;5.35;;;3.30;;
13455;SDS011;6800;50.940;6.940;2022-12-31T16:56:35;3.95;;;3.30;;
13455;SDS011;6800;50.940;6.940;2022-12-31T17:00:38;4.43;;;3.97;;
13455;SDS011;6800;50.940;6.940;2022-12-31T17:04:38;5.38;;;4.13;;
13455;SDS011;6800;50.940;6.940;2022-12-31T17:08:49;5.57;;;3.75;;
13455;SDS011;6800;50.940;6.940;2022-12-31T17:13:08;4.18;;;3.50;;
13455;SDS011;6800;50.940;6.940;2022-12-31T17:17:24;4.65;;;3.30;;
13455;SDS011;6800;50.940;6.940;2022-12-31T17:21:29;6.43;;;3.60;;
13455;SDS011;6800;50.940;6.940;2022-12-31T17:25:32;5.83;;;3.53;;
13455;SDS011;6800;50.940;6.940;2022-12-31T17:29:34;4.55;;;3.75;;
13455;SDS011;6800;50.940;6.940;2022-12-31T17:33:35;5.97;;;4.13;;
13455;SDS011;6800;50.940;6.940;2022-12-31T17:37:35;6.68;;;3.28;;
13455;SDS011;6800;50.940;6.940;2022-12-31T17:41:36;3.83;;;3.45;;
13455;SDS011;6800;50.940;6.940;2022-12-31T17:45:36;5.15;;;3.50;;
13455;SDS011;6800;50.940;6.940;2022-12-31T17:49:37;5.38;;;3.22;;
13455;SDS011;6800;50.940;6.940;2022-12-31T17:53:38;3.45;;;3.15;;
13455;SDS011;6800;50.940;6.940;2022-12-31T17:57:42;4.40;;;3.30;;
13455;SDS011;6800;50.940;6.940;2022-12-31T18:01:48;4.18;;;3.33;;
13455;SDS011;6800;50.940;6.940;2022-12-31T18:05:48;4.00;;;3.60;;
13455;SDS011;6800;50.940;6.940;2022-12-31T18:09:49;5.03;;;3.30;;
13455;SDS011;6800;50.940;6.940;2022-12-31T18:13:49;4.80;;;3.30;;
13455;SDS011;6800;50.940;6.940;2022-12-31T18:17:49;7.47;;;3.58;;
13455;SDS011;6800;50.940;6.940;2022-12-31T18:21:50;6.18;;;3.53;;
13455;SDS011;6800;50.940;6.940;2022-12-31T18:25:50;5.85;;;3.80;;
13455;SDS011;6800;50.940;6.940;2022-12-31T18:29:50;5.22;;;3.75;;
13455;SDS011;6800;50.940;6.940;2022-12-31T18:33:51;3.83;;;3.42;;
13455;SDS011;6800;50.940;6.940;2022-12-31T18:37:52;4.40;;;3.95;;
13455;SDS011;6800;50.940;6.940;2022-12-31T18:41:52;7.50;;;3.70;;
13455;SDS011;6800;50.940;6.940;2022-12-31T18:45:52;5.80;;;3.80;;
13455;SDS011;6800;50.940;6.940;2022-12-31T18:49:53;7.32;;;3.55;;
13455;SDS011;6800;50.940;6.940;2022-12-31T18:53:53;6.30;;;3.70;;
13455;SDS011;6800;50.940;6.940;2022-12-31T18:57:53;6.85;;;3.50;;
13455;SDS011;6800;50.940;6.940;2022-12-31T19:01:53;4.93;;;3.47;;
13455;SDS011;6800;50.940;6.940;2022-12-31T19:05:54;4.95;;;3.92;;
13455;SDS011;6800;50.940;6.940;2022-12-31T19:09:54;5.93;;;4.47;;
13455;SDS011;6800;50.940;6.940;2022-12-31T19:13:54;5.72;;;3.95;;
13455;SDS011;6800;50.940;6.940;2022-12-31T19:17:55;5.72;;;3.90;;
13455;SDS011;6800;50.940;6.940;2022-12-31T19:21:56;6.55;;;3.80;;
13455;SDS011;6800;50.940;6.940;2022-12-31T19:25:56;4.15;;;3.72;;
13455;SDS011;6800;50.940;6.940;2022-12-31T19:29:56;7.47;;;3.95;;
13455;SDS011;6800;50.940;6.940;2022-12-31T19:33:56;5.85;;;3.75;;
13455;SDS011;6800;50.940;6.940;2022-12-31T19:37:56;6.75;;;4.10;;
13455;SDS011;6800;50.940;6.940;2022-12-31T19:41:57;9.52;;;5.22;;
13455;SDS011;6800;50.940;6.940;2022-12-31T19:45:57;6.97;;;4.32;;
13455;SDS011;6800;50.940;6.940;2022-12-31T19:49:57;6.90;;;4.30;;
13455;SDS011;6800;50.940;6.940;2022-12-31T19:54:00;5.50;;;3.92;;
13455;SDS011;6800;50.940;6.940;2022-12-31T19:58:00;6.60;;;4.50;;
13455;SDS011;6800;50.940;6.940;2022-12-31T20:02:00;6.63;;;4.55;;
13455;SDS011;6800;50.940;6.940;2022-12-31T20:06:03;7.88;;;4.47;;
13455;SDS011;6800;50.940;6.940;2022-12-31T20:10:05;7.53;;;4.90;;
13455;SDS011;6800;50.940;6.940;2022-12-31T20:14:06;4.47;;;4.07;;
13455;SDS011;6800;50.940;6.940;2022-12-31T20:18:06;6.53;;;3.95;;
13455;SDS011;6800;50.940;6.940;2022-12-31T20:22:07;5.20;;;4.30;;
13455;SDS011;6800;50.940;6.940;2022-12-31T20:26:10;7.15;;;4.60;;
13455;SDS011;6800;50.940;6.940;2022-12-31T20:30:11;9.25;;;4.43;;
13455;SDS011;6800;50.940;6.940;2022-12-31T20:34:11;5.78;;;3.80;;
13455;SDS011;6800;50.940;6.940;2022-12-31T20:38:12;10.30;;;4.15;;
13455;SDS011;6800;50.940;6.940;2022-12-31T20:42:12;4.40;;;4.00;;
13455;SDS011;6800;50.940;6.940;2022-12-31T20:46:16;5.28;;;3.90;;
13455;SDS011;6800;50.940;6.940;2022-12-31T20:50:19;7.38;;;3.63;;
13455;SDS011;6800;50.940;6.940;2022-12-31T20:54:19;7.13;;;4.07;;
13455;SDS011;6800;50.940;6.940;2022-12-31T20:58:19;6.60;;;3.97;;
13455;SDS011;6800;50.940;6.940;2022-12-31T21:02:19;6.43;;;3.47;;
13455;SDS011;6800;50.940;6.940;2022-12-31T21:06:21;6.18;;;3.70;;
13455;SDS011;6800;50.940;6.940;2022-12-31T21:10:21;7.95;;;4.38;;
13455;SDS011;6800;50.940;6.940;2022-12-31T21:14:21;8.93;;;4.03;;
13455;SDS011;6800;50.940;6.940;2022-12-31T21:18:22;7.88;;;4.30;;
13455;SDS011;6800;50.940;6.940;2022-12-31T21:22:22;5.90;;;4.22;;
13455;SDS011;6800;50.940;6.940;2022-12-31T21:26:23;6.70;;;5.05;;
13455;SDS011;6800;50.940;6.940;2022-12-31T21:30:23;8.55;;;5.63;;
13455;SDS011;6800;50.940;6.940;2022-12-31T21:34:24;9.60;;;5.68;;
13455;SDS011;6800;50.940;6.940;2022-12-31T21:38:24;10.00;;;7.32;;
13455;SDS011;6800;50.940;6.940;2022-12-31T21:42:25;8.32;;;5.22;;
13455;SDS011;6800;50.940;6.940;2022-12-31T21:46:25;7.40;;;5.07;;
13455;SDS011;6800;50.940;6.940;2022-12-31T21:50:25;5.80;;;4.40;;
13455;SDS011;6800;50.940;6.940;2022-12-31T21:54:25;6.30;;;4.77;;
13455;SDS011;6800;50.940;6.940;2022-12-31T21:58:45;9.23;;;6.22;;
13455;SDS011;6800;50.940;6.940;2022-12-31T22:03:07;7.43;;;5.57;;
13455;SDS011;6800;50.940;6.940;2022-12-31T22:07:30;8.68;;;5.28;;
13455;SDS011;6800;50.940;6.940;2022-12-31T22:11:30;7.43;;;4.97;;
13455;SDS011;6800;50.940;6.940;2022-12-31T22:15:30;6.17;;;3.80;;
13455;SDS011;6800;50.940;6.940;2022-12-31T22:19:31;7.68;;;5.85;;
13455;SDS011;6800;50.940;6.940;2022-12-31T22:23:32;6.47;;;4.57;;
13455;SDS011;6800;50.940;6.940;2022-12-31T22:27:33;5.93;;;4.45;;
13455;SDS011;6800;50.940;6.940;2022-12-31T22:31:33;7.17;;;6.07;;
13455;SDS011;6800;50.940;6.940;2022-12-31T22:35:33;8.67;;;6.33;;
13455;SDS011;6800;50.940;6.940;2022-12-31T22:39:34;5.95;;;4.53;;
13455;SDS011;6800;50.940;6.940;2022-12-31T22:43:35;6.18;;;5.30;;
13455;SDS011;6800;50.940;6.940;2022-12-31T22:47:40;6.93;;;4.55;;
13455;SDS011;6800;50.940;6.940;2022-12-31T22:51:40;11.40;;;4.30;;
13455;SDS011;6800;50.940;6.940;2022-12-31T22:55:41;7.23;;;4.83;;
13455;SDS011;6800;50.940;6.940;2022-12-31T22:59:41;14.30;;;9.57;;
13455;SDS011;6800;50.940;6.940;2022-12-31T23:03:41;167.18;;;123.90;;
13455;SDS011;6800;50.940;6.940;2022-12-31T23:07:42;278.42;;;207.10;;
13455;SDS011;6800;50.940;6.940;2022-12-31T23:11:42;88.18;;;68.50;;
13455;SDS011;6800;50.940;6.940;2022-12-31T23:15:43;76.13;;;55.28;;
13455;SDS011;6800;50.940;6.940;2022-12-31T23:20:04;45.60;;;35.97;;
13455;SDS011;6800;50.940;6.940;2022-12-31T23:24:28;33.05;;;25.95;;
13455;SDS011;6800;50.940;6.940;2022-12-31T23:28:28;22.73;;;17.98;;
13455;SDS011;6800;50.940;6.940;2022-12-31T23:32:28;28.45;;;20.80;;
13455;SDS011;6800;50.940;6.940;2022-12-31T23:36:29;21.40;;;17.95;;
13455;SDS011;6800;50.940;6.940;2022-12-31T23:40:29;28.40;;;21.80;;
13455;SDS011;6800;50.940;6.940;2022-12-31T23:44:38;26.30;;;20.38;;
13455;SDS011;6800;50.940;6.940;2022-12-31T23:48:38;21.45;;;15.63;;
13455;SDS011;6800;50.940;6.940;2022-12-31T23:52:38;17.80;;;12.88;;
13455;SDS011;6800;50.940;6.940;2022-12-31T23:56:39;15.70;;;11.95;;
